Time;durP1;ratioP1;P1;durP2;ratioP2;P2;SDS_P1;SDS_P2;PMS_P1;PMS_P2;Temp;Humidity;BMP_temperature;BMP_pressure;BME280_temperature;BME280_humidity;BME280_pressure;Samples;Min_cycle;Max_cycle;Signal;HPM_P1;HPM_P2
2021/11/18 00:01:21;;;;;;;59.70;19.67;;;;;;;;;;4986637;28;20038;-66
2021/11/18 00:03:47;;;;;;;49.22;19.42;;;;;;;;;;4990978;28;20455;-66
2021/11/18 00:06:12;;;;;;;51.95;19.95;;;;;;;;;;4989268;28;20109;-67
2021/11/18 00:08:38;;;;;;;53.92;19.30;;;;;;;;;;4988220;28;20037;-67
2021/11/18 00:11:05;;;;;;;58.38;20.80;;;;;;;;;;4994749;28;20025;-66
2021/11/18 00:13:32;;;;;;;49.33;20.33;;;;;;;;;;4994648;28;20086;-66
2021/11/18 00:15:57;;;;;;;53.00;21.25;;;;;;;;;;4994349;28;20459;-66
2021/11/18 00:18:24;;;;;;;61.13;20.95;;;;;;;;;;4982230;28;20039;-67
2021/11/18 00:20:54;;;;;;;69.68;19.83;;;;;;;;;;4975243;28;20482;-67
2021/11/18 00:23:20;;;;;;;54.88;20.33;;;;;;;;;;4982029;28;20030;-66
2021/11/18 00:25:45;;;;;;;59.35;19.80;;;;;;;;;;4986205;28;20407;-66
2021/11/18 00:28:11;;;;;;;57.72;20.15;;;;;;;;;;4987837;28;20022;-67
2021/11/18 00:30:36;;;;;;;58.55;21.20;;;;;;;;;;4986721;28;20039;-66
2021/11/18 00:33:02;;;;;;;64.78;20.85;;;;;;;;;;4985460;28;20533;-67
2021/11/18 00:35:28;;;;;;;67.10;20.75;;;;;;;;;;4987392;28;20156;-67
2021/11/18 00:37:54;;;;;;;54.05;19.90;;;;;;;;;;4982251;28;20025;-67
2021/11/18 00:40:21;;;;;;;52.47;19.38;;;;;;;;;;4982964;28;20069;-67
2021/11/18 00:42:46;;;;;;;60.78;20.75;;;;;;;;;;4984654;28;20015;-67
2021/11/18 00:45:12;;;;;;;62.30;21.15;;;;;;;;;;4984871;28;20010;-66
2021/11/18 00:47:38;;;;;;;65.47;20.90;;;;;;;;;;4983839;28;20084;-67
2021/11/18 00:50:05;;;;;;;59.88;20.25;;;;;;;;;;4983278;28;20014;-67
2021/11/18 00:52:30;;;;;;;60.85;21.73;;;;;;;;;;4985355;28;20026;-66
2021/11/18 00:54:56;;;;;;;56.15;20.90;;;;;;;;;;4985218;28;20034;-67
2021/11/18 00:57:21;;;;;;;54.50;20.98;;;;;;;;;;4984166;28;20038;-67
2021/11/18 00:59:46;;;;;;;52.45;20.60;;;;;;;;;;4984620;28;20038;-67
2021/11/18 01:02:15;;;;;;;55.78;19.23;;;;;;;;;;4987001;28;20026;-68
2021/11/18 01:04:41;;;;;;;59.78;18.10;;;;;;;;;;4982554;28;20538;-66
2021/11/18 01:07:06;;;;;;;59.70;20.27;;;;;;;;;;4984765;28;20088;-67
2021/11/18 01:09:31;;;;;;;53.70;20.55;;;;;;;;;;4984130;28;20026;-66
2021/11/18 01:11:56;;;;;;;63.60;19.20;;;;;;;;;;4986662;28;20049;-66
2021/11/18 01:14:22;;;;;;;60.35;20.55;;;;;;;;;;4983697;28;20022;-67
2021/11/18 01:16:48;;;;;;;52.38;18.52;;;;;;;;;;4984492;28;20073;-69
2021/11/18 01:19:14;;;;;;;65.45;21.45;;;;;;;;;;4982778;28;20483;-66
2021/11/18 01:21:40;;;;;;;62.10;19.77;;;;;;;;;;4980465;28;20043;-67
2021/11/18 01:24:05;;;;;;;53.15;19.08;;;;;;;;;;4982559;28;20030;-68
2021/11/18 01:26:31;;;;;;;60.70;20.17;;;;;;;;;;4984327;28;20065;-67
2021/11/18 01:28:59;;;;;;;49.75;18.73;;;;;;;;;;4984621;28;20042;-69
2021/11/18 01:31:24;;;;;;;61.13;19.02;;;;;;;;;;4982609;28;20042;-68
2021/11/18 01:33:50;;;;;;;52.53;17.35;;;;;;;;;;4980157;28;20044;-67
2021/11/18 01:36:15;;;;;;;56.83;18.00;;;;;;;;;;4980790;28;20916;-67
2021/11/18 01:38:40;;;;;;;48.17;16.73;;;;;;;;;;4984451;28;20066;-67
2021/11/18 01:41:07;;;;;;;54.25;18.02;;;;;;;;;;4986328;28;20022;-67
2021/11/18 01:43:40;;;;;;;51.17;18.88;;;;;;;;;;4988530;28;20030;-67
2021/11/18 01:46:07;;;;;;;48.03;18.65;;;;;;;;;;4992349;28;20022;-67
2021/11/18 01:48:32;;;;;;;48.92;17.40;;;;;;;;;;4991376;28;20026;-66
2021/11/18 01:50:57;;;;;;;46.45;17.08;;;;;;;;;;4988582;28;20046;-68
2021/11/18 01:53:26;;;;;;;47.70;15.23;;;;;;;;;;4984405;28;20029;-67
2021/11/18 01:55:52;;;;;;;44.92;17.42;;;;;;;;;;4988024;28;20029;-67
2021/11/18 01:58:18;;;;;;;47.05;16.55;;;;;;;;;;4988499;28;20023;-67
2021/11/18 02:00:46;;;;;;;35.30;15.20;;;;;;;;;;4983594;28;20486;-69
2021/11/18 02:03:11;;;;;;;54.15;17.10;;;;;;;;;;4982921;28;20033;-66
2021/11/18 02:05:38;;;;;;;51.95;17.42;;;;;;;;;;4983982;28;20034;-66
2021/11/18 02:08:05;;;;;;;48.95;17.40;;;;;;;;;;4982768;28;20027;-69
2021/11/18 02:10:42;;;;;;;43.13;16.08;;;;;;;;;;4984050;28;20379;-68
2021/11/18 02:13:08;;;;;;;47.63;16.58;;;;;;;;;;4982356;28;20075;-67
2021/11/18 02:15:36;;;;;;;43.95;16.00;;;;;;;;;;4982936;28;20041;-67
2021/11/18 02:18:02;;;;;;;41.47;16.08;;;;;;;;;;4984007;28;20030;-67
2021/11/18 02:20:32;;;;;;;41.88;16.00;;;;;;;;;;4982362;28;20041;-66
2021/11/18 02:22:58;;;;;;;52.72;18.10;;;;;;;;;;4983879;28;20541;-67
2021/11/18 02:25:25;;;;;;;43.58;17.13;;;;;;;;;;4981866;28;20173;-66
2021/11/18 02:27:50;;;;;;;46.63;17.20;;;;;;;;;;4979377;28;20037;-66
2021/11/18 02:30:15;;;;;;;44.90;15.57;;;;;;;;;;4980387;28;20015;-67
2021/11/18 02:32:41;;;;;;;40.72;16.13;;;;;;;;;;4980620;28;20068;-68
2021/11/18 02:35:06;;;;;;;43.35;15.40;;;;;;;;;;4981704;28;20019;-67
2021/11/18 02:37:31;;;;;;;43.47;15.88;;;;;;;;;;4980844;28;20022;-68
2021/11/18 02:39:57;;;;;;;42.95;16.40;;;;;;;;;;4980143;28;20025;-68
2021/11/18 02:42:22;;;;;;;53.03;17.10;;;;;;;;;;4981562;28;20055;-69
2021/11/18 02:44:48;;;;;;;44.70;16.48;;;;;;;;;;4982012;28;20030;-67
2021/11/18 02:47:13;;;;;;;40.95;17.15;;;;;;;;;;4981494;28;20105;-69
2021/11/18 02:49:41;;;;;;;54.00;16.65;;;;;;;;;;4985736;28;20030;-65
2021/11/18 02:52:07;;;;;;;49.67;16.30;;;;;;;;;;4986759;28;20026;-67
2021/11/18 02:54:32;;;;;;;51.88;18.08;;;;;;;;;;4991438;28;20109;-68
2021/11/18 02:56:57;;;;;;;35.47;15.73;;;;;;;;;;4991464;28;20088;-66
2021/11/18 02:59:22;;;;;;;53.15;16.75;;;;;;;;;;4986338;28;20021;-67
2021/11/18 03:01:48;;;;;;;41.53;14.77;;;;;;;;;;4980496;28;20036;-67
2021/11/18 03:04:14;;;;;;;56.85;17.45;;;;;;;;;;4984943;28;20403;-65
2021/11/18 03:06:41;;;;;;;47.72;18.45;;;;;;;;;;4983326;28;20678;-65
2021/11/18 03:09:06;;;;;;;52.85;16.35;;;;;;;;;;4983011;28;20022;-66
2021/11/18 03:11:32;;;;;;;50.83;16.98;;;;;;;;;;4982026;28;20027;-66
2021/11/18 03:13:57;;;;;;;54.10;16.55;;;;;;;;;;4991041;28;20037;-66
2021/11/18 03:16:23;;;;;;;49.45;17.20;;;;;;;;;;4989684;28;20771;-67
2021/11/18 03:18:49;;;;;;;43.33;16.13;;;;;;;;;;4980587;28;20112;-66
2021/11/18 03:21:15;;;;;;;43.75;15.93;;;;;;;;;;4982640;28;20029;-67
2021/11/18 03:23:41;;;;;;;45.70;15.55;;;;;;;;;;4983574;28;20026;-66
2021/11/18 03:26:07;;;;;;;39.33;13.95;;;;;;;;;;4983536;28;20038;-68
2021/11/18 03:28:35;;;;;;;39.50;15.77;;;;;;;;;;4982860;28;20145;-67
2021/11/18 03:31:02;;;;;;;43.67;14.70;;;;;;;;;;4982457;28;20018;-66
2021/11/18 03:33:29;;;;;;;38.97;15.07;;;;;;;;;;4980347;28;20117;-66
2021/11/18 03:35:55;;;;;;;37.40;14.52;;;;;;;;;;4981553;28;20480;-68
2021/11/18 03:38:21;;;;;;;36.40;14.93;;;;;;;;;;4982122;28;20050;-69
2021/11/18 03:40:50;;;;;;;28.98;12.40;;;;;;;;;;4981218;28;20050;-66
2021/11/18 03:43:17;;;;;;;42.85;14.32;;;;;;;;;;4984384;28;20232;-66
2021/11/18 03:45:42;;;;;;;45.85;14.50;;;;;;;;;;4984848;28;20022;-67
2021/11/18 03:48:08;;;;;;;53.63;16.42;;;;;;;;;;4982677;28;20022;-69
2021/11/18 03:50:34;;;;;;;45.30;15.30;;;;;;;;;;4985503;28;20018;-67
2021/11/18 03:52:59;;;;;;;41.08;15.38;;;;;;;;;;4985629;28;20019;-66
2021/11/18 03:55:24;;;;;;;45.63;14.77;;;;;;;;;;4988412;28;20391;-67
2021/11/18 03:57:49;;;;;;;49.75;15.00;;;;;;;;;;4992237;28;20057;-67
2021/11/18 04:00:18;;;;;;;51.55;15.90;;;;;;;;;;4986148;28;20478;-66
2021/11/18 04:02:43;;;;;;;39.70;15.07;;;;;;;;;;4985379;28;20069;-66
2021/11/18 04:05:08;;;;;;;47.10;14.55;;;;;;;;;;4986490;28;20553;-66
2021/11/18 04:07:39;;;;;;;51.15;15.63;;;;;;;;;;4986526;28;20644;-68
2021/11/18 04:10:04;;;;;;;;;;;;;;;;;;4985586;28;20038;-67
2021/11/18 04:12:29;;;;;;;41.28;14.43;;;;;;;;;;4988730;28;19917;-66
2021/11/18 04:14:54;;;;;;;39.58;14.05;;;;;;;;;;4986319;28;20395;-66
2021/11/18 04:17:19;;;;;;;42.35;14.82;;;;;;;;;;4983145;28;20026;-66
2021/11/18 04:19:45;;;;;;;51.13;14.63;;;;;;;;;;4988493;28;20079;-66
2021/11/18 04:22:10;;;;;;;52.88;14.85;;;;;;;;;;4991609;28;20471;-67
2021/11/18 04:24:38;;;;;;;44.08;13.02;;;;;;;;;;4984976;28;20039;-66
2021/11/18 04:27:04;;;;;;;43.05;13.98;;;;;;;;;;4985441;28;20538;-66
2021/11/18 04:29:29;;;;;;;48.30;15.18;;;;;;;;;;4985066;28;20153;-67
2021/11/18 04:31:56;;;;;;;56.53;15.90;;;;;;;;;;4982733;28;20418;-66
2021/11/18 04:34:21;;;;;;;38.33;14.13;;;;;;;;;;4982368;28;20141;-66
2021/11/18 04:36:46;;;;;;;40.13;13.88;;;;;;;;;;4985820;28;21965;-66
2021/11/18 04:39:12;;;;;;;35.22;13.60;;;;;;;;;;4984951;28;20075;-68
2021/11/18 04:41:37;;;;;;;40.60;13.25;;;;;;;;;;4984834;28;20145;-67
2021/11/18 04:44:03;;;;;;;42.15;13.32;;;;;;;;;;4986127;28;20042;-66
2021/11/18 04:46:29;;;;;;;37.15;14.07;;;;;;;;;;4993508;28;20030;-66
2021/11/18 04:48:55;;;;;;;35.05;13.30;;;;;;;;;;4985935;28;20403;-66
2021/11/18 04:51:22;;;;;;;41.80;14.75;;;;;;;;;;4983327;28;20022;-67
2021/11/18 04:53:47;;;;;;;35.95;12.25;;;;;;;;;;4985739;28;20068;-66
2021/11/18 04:56:13;;;;;;;33.28;12.48;;;;;;;;;;4984325;28;20798;-67
2021/11/18 04:58:39;;;;;;;36.75;12.30;;;;;;;;;;4984826;28;20026;-66
2021/11/18 05:01:05;;;;;;;32.30;12.98;;;;;;;;;;4985320;28;20072;-66
2021/11/18 05:03:30;;;;;;;28.85;12.65;;;;;;;;;;4982271;28;20085;-66
2021/11/18 05:05:56;;;;;;;50.03;13.65;;;;;;;;;;4986843;28;20062;-68
2021/11/18 05:08:22;;;;;;;34.42;12.68;;;;;;;;;;4984846;28;20030;-67
2021/11/18 05:10:48;;;;;;;32.65;12.63;;;;;;;;;;4984585;28;20027;-66
2021/11/18 05:13:14;;;;;;;36.75;13.00;;;;;;;;;;4981782;28;20098;-66
2021/11/18 05:15:41;;;;;;;42.70;15.07;;;;;;;;;;4982814;28;20065;-66
2021/11/18 05:18:07;;;;;;;44.30;13.88;;;;;;;;;;4983518;28;20022;-66
2021/11/18 05:20:33;;;;;;;30.35;12.82;;;;;;;;;;4983799;28;20766;-68
2021/11/18 05:22:59;;;;;;;40.42;13.68;;;;;;;;;;4983829;28;20057;-66
2021/11/18 05:25:26;;;;;;;33.72;12.40;;;;;;;;;;4987343;28;20471;-69
2021/11/18 05:27:51;;;;;;;39.92;12.73;;;;;;;;;;4987121;28;20473;-69
2021/11/18 05:30:17;;;;;;;32.83;12.20;;;;;;;;;;4982910;28;20104;-67
2021/11/18 05:32:42;;;;;;;39.85;12.60;;;;;;;;;;4982829;28;20018;-68
2021/11/18 05:35:08;;;;;;;37.45;13.18;;;;;;;;;;4988142;28;20097;-68
2021/11/18 05:37:33;;;;;;;31.48;12.38;;;;;;;;;;4984941;28;20471;-67
2021/11/18 05:39:58;;;;;;;37.63;12.75;;;;;;;;;;4986567;28;20041;-67
2021/11/18 05:42:23;;;;;;;31.13;13.38;;;;;;;;;;4985066;28;20084;-66
2021/11/18 05:44:49;;;;;;;48.67;13.35;;;;;;;;;;4984205;28;20022;-67
2021/11/18 05:47:18;;;;;;;45.30;13.55;;;;;;;;;;4982639;28;20109;-67
2021/11/18 05:49:44;;;;;;;38.30;11.48;;;;;;;;;;4986051;28;20053;-66
2021/11/18 05:52:09;;;;;;;37.63;12.90;;;;;;;;;;4978266;28;20023;-66
2021/11/18 05:54:34;;;;;;;37.20;12.95;;;;;;;;;;4983730;28;20033;-66
2021/11/18 05:57:00;;;;;;;47.20;13.95;;;;;;;;;;4982517;28;20031;-68
2021/11/18 05:59:25;;;;;;;41.40;11.30;;;;;;;;;;4980690;28;20030;-69
2021/11/18 06:01:50;;;;;;;42.70;11.80;;;;;;;;;;4979753;28;20034;-66
2021/11/18 06:04:15;;;;;;;42.08;11.85;;;;;;;;;;4984670;28;20097;-66
2021/11/18 06:06:41;;;;;;;37.67;12.70;;;;;;;;;;4981151;28;20026;-67
2021/11/18 06:09:06;;;;;;;46.28;12.65;;;;;;;;;;4982012;28;20057;-68
2021/11/18 06:11:32;;;;;;;37.95;13.15;;;;;;;;;;4982937;28;20034;-66
2021/11/18 06:13:58;;;;;;;51.50;14.20;;;;;;;;;;4980171;28;20046;-67
2021/11/18 06:16:26;;;;;;;39.83;13.38;;;;;;;;;;4984704;28;20050;-67
2021/11/18 06:18:52;;;;;;;35.33;11.90;;;;;;;;;;4985528;28;20022;-67
2021/11/18 06:21:17;;;;;;;40.33;13.75;;;;;;;;;;4981448;28;20050;-70
2021/11/18 06:23:43;;;;;;;30.65;11.30;;;;;;;;;;4979785;28;20077;-69
2021/11/18 06:26:08;;;;;;;42.10;12.40;;;;;;;;;;4982867;28;20030;-66
2021/11/18 06:28:33;;;;;;;31.85;11.57;;;;;;;;;;4980971;28;20030;-68
2021/11/18 06:31:04;;;;;;;33.67;11.10;;;;;;;;;;4985762;28;20084;-66
2021/11/18 06:33:30;;;;;;;48.92;12.57;;;;;;;;;;4980649;28;20034;-67
2021/11/18 06:35:55;;;;;;;30.33;8.63;;;;;;;;;;4982862;28;20029;-68
2021/11/18 06:38:20;;;;;;;28.55;9.05;;;;;;;;;;4983715;28;20407;-66
2021/11/18 06:40:49;;;;;;;31.02;11.52;;;;;;;;;;4985064;28;20040;-67
2021/11/18 06:43:14;;;;;;;25.23;9.65;;;;;;;;;;4987134;28;20032;-67
2021/11/18 06:45:44;;;;;;;45.40;11.25;;;;;;;;;;4985089;28;20035;-67
2021/11/18 06:48:09;;;;;;;33.20;11.17;;;;;;;;;;4997404;28;20030;-67
2021/11/18 06:50:35;;;;;;;21.80;8.80;;;;;;;;;;4979407;28;20025;-67
2021/11/18 06:53:00;;;;;;;37.35;11.00;;;;;;;;;;4982524;28;20464;-69
2021/11/18 06:55:25;;;;;;;27.93;9.63;;;;;;;;;;4981877;28;20042;-66
2021/11/18 06:57:51;;;;;;;33.15;10.00;;;;;;;;;;4981956;28;20286;-66
2021/11/18 07:00:17;;;;;;;35.70;10.68;;;;;;;;;;4979939;28;20483;-66
2021/11/18 07:02:42;;;;;;;31.60;10.57;;;;;;;;;;4981603;28;20394;-67
2021/11/18 07:05:07;;;;;;;23.90;8.80;;;;;;;;;;4982978;28;20515;-65
2021/11/18 07:07:32;;;;;;;18.88;5.97;;;;;;;;;;4981390;28;20471;-66
2021/11/18 07:10:01;;;;;;;20.05;5.72;;;;;;;;;;4984219;28;20022;-65
2021/11/18 07:12:26;;;;;;;26.65;7.20;;;;;;;;;;4980075;28;20025;-68
2021/11/18 07:14:52;;;;;;;32.28;9.75;;;;;;;;;;4983540;28;20033;-65
2021/11/18 07:17:17;;;;;;;21.17;6.55;;;;;;;;;;4982869;28;20039;-66
2021/11/18 07:19:43;;;;;;;32.58;11.57;;;;;;;;;;4977354;28;20030;-69
2021/11/18 07:22:08;;;;;;;25.50;9.57;;;;;;;;;;4980402;28;20022;-65
2021/11/18 07:24:34;;;;;;;31.45;10.55;;;;;;;;;;4981503;28;20026;-66
2021/11/18 07:26:59;;;;;;;30.83;10.73;;;;;;;;;;4983533;28;20102;-67
2021/11/18 07:29:24;;;;;;;34.58;9.88;;;;;;;;;;4979579;28;20403;-66
2021/11/18 07:31:50;;;;;;;29.38;8.35;;;;;;;;;;4986830;28;20014;-67
2021/11/18 07:34:17;;;;;;;34.13;8.68;;;;;;;;;;4987133;28;20520;-67
2021/11/18 07:36:43;;;;;;;29.30;9.00;;;;;;;;;;4990268;28;20122;-65
2021/11/18 07:39:08;;;;;;;32.08;8.20;;;;;;;;;;4989177;28;20022;-65
2021/11/18 07:41:33;;;;;;;28.10;8.63;;;;;;;;;;4990596;28;20030;-67
2021/11/18 07:43:59;;;;;;;36.70;9.70;;;;;;;;;;4976829;28;20061;-69
2021/11/18 07:46:24;;;;;;;34.58;10.00;;;;;;;;;;4990510;28;20670;-65
2021/11/18 07:48:50;;;;;;;28.73;9.82;;;;;;;;;;4990689;28;20065;-66
2021/11/18 07:51:16;;;;;;;34.22;9.48;;;;;;;;;;4990770;28;20021;-65
2021/11/18 07:53:42;;;;;;;27.08;7.50;;;;;;;;;;4991068;28;20414;-66
2021/11/18 07:56:07;;;;;;;28.08;11.05;;;;;;;;;;4989251;28;20018;-65
2021/11/18 07:58:33;;;;;;;31.60;9.88;;;;;;;;;;4989849;28;20114;-65
2021/11/18 08:00:58;;;;;;;23.55;6.60;;;;;;;;;;4990674;28;20030;-68
2021/11/18 08:03:24;;;;;;;31.58;9.93;;;;;;;;;;4991190;28;20049;-65
2021/11/18 08:05:49;;;;;;;25.85;9.65;;;;;;;;;;4989720;28;20033;-66
2021/11/18 08:08:15;;;;;;;23.73;7.13;;;;;;;;;;4990458;28;20027;-66
2021/11/18 08:10:40;;;;;;;38.60;9.82;;;;;;;;;;4990117;28;20430;-67
2021/11/18 08:13:05;;;;;;;28.50;10.23;;;;;;;;;;4990794;28;20065;-67
2021/11/18 08:15:31;;;;;;;29.27;7.53;;;;;;;;;;4991070;28;20037;-67
2021/11/18 08:17:56;;;;;;;34.10;7.47;;;;;;;;;;4990519;28;20050;-68
2021/11/18 08:20:22;;;;;;;39.38;7.38;;;;;;;;;;4979251;28;20049;-68
2021/11/18 08:22:48;;;;;;;23.20;8.55;;;;;;;;;;4990322;28;20046;-67
2021/11/18 08:25:14;;;;;;;30.58;11.63;;;;;;;;;;4983777;28;20084;-69
2021/11/18 08:27:40;;;;;;;32.67;10.60;;;;;;;;;;4990699;28;20072;-68
2021/11/18 08:30:08;;;;;;;39.22;11.07;;;;;;;;;;4991874;28;20034;-68
2021/11/18 08:32:33;;;;;;;32.50;11.55;;;;;;;;;;4994557;28;20022;-67
2021/11/18 08:34:58;;;;;;;34.42;9.60;;;;;;;;;;4994481;28;20017;-67
2021/11/18 08:37:23;;;;;;;32.70;10.02;;;;;;;;;;4993640;28;20057;-69
2021/11/18 08:39:48;;;;;;;25.88;9.60;;;;;;;;;;4987190;28;20476;-67
2021/11/18 08:42:15;;;;;;;39.78;13.05;;;;;;;;;;4974594;28;20042;-68
2021/11/18 08:44:41;;;;;;;30.50;11.15;;;;;;;;;;4975095;28;20019;-67
2021/11/18 08:47:08;;;;;;;25.95;9.02;;;;;;;;;;4985559;28;20113;-67
2021/11/18 08:49:33;;;;;;;23.25;7.60;;;;;;;;;;4994085;28;20030;-67
2021/11/18 08:52:06;;;;;;;32.50;11.50;;;;;;;;;;4992876;28;20506;-68
2021/11/18 08:54:31;;;;;;;37.50;11.15;;;;;;;;;;4977498;28;20420;-67
2021/11/18 08:56:57;;;;;;;33.05;9.75;;;;;;;;;;4993646;28;20072;-68
2021/11/18 08:59:23;;;;;;;30.48;9.85;;;;;;;;;;4993658;28;20030;-69
2021/11/18 09:01:51;;;;;;;28.55;9.68;;;;;;;;;;4992346;28;20117;-67
2021/11/18 09:04:19;;;;;;;27.80;9.55;;;;;;;;;;4993857;28;20498;-68
2021/11/18 09:06:44;;;;;;;28.55;10.00;;;;;;;;;;4995069;28;20026;-67
2021/11/18 09:09:10;;;;;;;24.38;6.30;;;;;;;;;;4992833;28;20045;-67
2021/11/18 09:11:36;;;;;;;32.83;9.85;;;;;;;;;;4993472;28;20483;-69
2021/11/18 09:14:02;;;;;;;21.35;6.05;;;;;;;;;;4993384;28;20029;-68
2021/11/18 09:16:28;;;;;;;21.10;7.93;;;;;;;;;;4993625;28;20018;-68
2021/11/18 09:18:54;;;;;;;32.22;9.18;;;;;;;;;;4993536;28;20026;-67
2021/11/18 09:21:20;;;;;;;18.83;6.07;;;;;;;;;;4993123;28;20467;-69
2021/11/18 09:23:56;;;;;;;31.27;9.52;;;;;;;;;;4993184;28;20076;-68
2021/11/18 09:26:23;;;;;;;31.50;9.27;;;;;;;;;;4993310;28;20781;-70
2021/11/18 09:28:48;;;;;;;29.88;9.00;;;;;;;;;;4993494;28;20069;-67
2021/11/18 09:31:15;;;;;;;28.90;8.90;;;;;;;;;;4992831;28;20553;-68
2021/11/18 09:33:40;;;;;;;28.70;9.02;;;;;;;;;;4993256;28;20715;-68
2021/11/18 09:36:07;;;;;;;29.05;9.43;;;;;;;;;;4993097;28;20051;-69
2021/11/18 09:38:33;;;;;;;28.90;9.93;;;;;;;;;;4981506;28;20034;-69
2021/11/18 09:41:16;;;;;;;29.88;8.65;;;;;;;;;;4973090;28;20479;-68
2021/11/18 09:43:54;;;;;;;25.33;10.07;;;;;;;;;;4992464;28;20377;-69
2021/11/18 09:46:30;;;;;;;36.33;10.05;;;;;;;;;;4993085;28;20108;-67
2021/11/18 09:49:14;;;;;;;24.75;11.35;;;;;;;;;;4992897;28;20021;-68
2021/11/18 09:51:58;;;;;;;19.02;8.02;;;;;;;;;;4989902;28;20022;-67
2021/11/18 09:54:29;;;;;;;19.83;4.55;;;;;;;;;;4990275;28;20034;-67
2021/11/18 09:57:13;;;;;;;15.07;5.35;;;;;;;;;;4992724;28;20479;-67
2021/11/18 09:59:41;;;;;;;28.55;6.97;;;;;;;;;;4992678;28;20053;-69
2021/11/18 10:02:21;;;;;;;19.92;8.18;;;;;;;;;;4992335;28;20038;-68
2021/11/18 10:04:54;;;;;;;28.40;10.05;;;;;;;;;;4994671;28;20168;-68
2021/11/18 10:07:22;;;;;;;25.20;8.10;;;;;;;;;;4988411;28;20365;-68
2021/11/18 10:10:03;;;;;;;15.50;5.20;;;;;;;;;;4992761;28;20477;-67
2021/11/18 10:12:47;;;;;;;14.70;6.82;;;;;;;;;;4992499;28;20038;-68
2021/11/18 10:15:19;;;;;;;15.50;5.50;;;;;;;;;;4992525;28;20022;-67
2021/11/18 10:17:52;;;;;;;29.73;8.48;;;;;;;;;;4992067;28;20431;-67
2021/11/18 10:20:24;;;;;;;30.10;9.05;;;;;;;;;;4992212;28;20033;-68
2021/11/18 10:23:15;;;;;;;20.73;8.60;;;;;;;;;;4992356;28;20054;-69
2021/11/18 10:25:45;;;;;;;19.08;7.10;;;;;;;;;;4970877;28;20039;-68
2021/11/18 10:28:19;;;;;;;28.85;8.48;;;;;;;;;;4972576;28;20038;-68
2021/11/18 10:30:45;;;;;;;28.65;8.50;;;;;;;;;;4972568;28;20019;-68
2021/11/18 10:33:15;;;;;;;21.13;8.02;;;;;;;;;;4987351;28;20375;-68
2021/11/18 10:35:59;;;;;;;31.60;8.00;;;;;;;;;;4992184;28;20110;-68
2021/11/18 10:38:26;;;;;;;29.25;8.63;;;;;;;;;;4990464;28;20030;-68
2021/11/18 10:41:05;;;;;;;27.13;10.57;;;;;;;;;;4990248;28;20026;-68
2021/11/18 10:43:33;;;;;;;26.17;8.75;;;;;;;;;;4991807;28;20510;-68
2021/11/18 10:46:06;;;;;;;20.02;7.47;;;;;;;;;;4991924;28;20097;-67
2021/11/18 10:48:34;;;;;;;27.95;8.45;;;;;;;;;;4972898;28;20744;-68
2021/11/18 10:51:04;;;;;;;22.50;7.47;;;;;;;;;;4975487;28;20374;-67
2021/11/18 10:53:31;;;;;;;26.58;7.78;;;;;;;;;;4984907;28;20498;-67
2021/11/18 10:55:59;;;;;;;41.92;9.85;;;;;;;;;;4989261;28;20145;-68
2021/11/18 10:58:24;;;;;;;36.15;9.70;;;;;;;;;;4988865;28;20030;-68
2021/11/18 11:00:55;;;;;;;16.75;5.80;;;;;;;;;;4991262;28;20448;-67
2021/11/18 11:03:23;;;;;;;14.05;5.07;;;;;;;;;;4988669;28;20034;-68
2021/11/18 11:05:48;;;;;;;34.25;9.57;;;;;;;;;;4991680;28;20021;-67
2021/11/18 11:08:29;;;;;;;38.22;9.93;;;;;;;;;;4991009;28;20018;-68
2021/11/18 11:10:58;;;;;;;31.38;8.40;;;;;;;;;;4991463;28;20526;-67
2021/11/18 11:13:32;;;;;;;28.33;7.43;;;;;;;;;;4985678;28;20056;-67
2021/11/18 11:16:14;;;;;;;29.45;7.50;;;;;;;;;;4991651;28;20141;-69
2021/11/18 11:18:42;;;;;;;26.15;7.72;;;;;;;;;;4990770;28;20030;-68
2021/11/18 11:21:28;;;;;;;32.25;7.35;;;;;;;;;;4991091;28;20526;-68
2021/11/18 11:23:53;;;;;;;30.30;6.25;;;;;;;;;;4991361;28;20502;-68
2021/11/18 11:26:37;;;;;;;47.13;7.57;;;;;;;;;;4991341;28;20034;-70
2021/11/18 11:29:05;;;;;;;36.92;6.65;;;;;;;;;;4990803;28;20277;-67
2021/11/18 11:31:47;;;;;;;30.05;6.32;;;;;;;;;;4991042;28;20019;-68
2021/11/18 11:34:13;;;;;;;27.52;6.22;;;;;;;;;;4988788;28;20026;-67
2021/11/18 11:36:46;;;;;;;29.60;6.00;;;;;;;;;;4991124;28;20018;-68
2021/11/18 11:39:21;;;;;;;33.58;6.47;;;;;;;;;;4991099;28;20045;-67
2021/11/18 11:41:52;;;;;;;34.00;6.65;;;;;;;;;;4990914;28;20022;-67
2021/11/18 11:44:24;;;;;;;32.20;6.05;;;;;;;;;;4991089;28;20042;-67
2021/11/18 11:46:53;;;;;;;29.75;6.72;;;;;;;;;;4991085;28;20054;-67
2021/11/18 11:49:21;;;;;;;37.78;7.15;;;;;;;;;;4990731;28;20088;-68
2021/11/18 11:52:05;;;;;;;27.67;6.20;;;;;;;;;;4971402;28;20089;-67
2021/11/18 11:54:49;;;;;;;27.67;6.03;;;;;;;;;;4971879;28;20023;-67
2021/11/18 11:57:22;;;;;;;31.05;6.22;;;;;;;;;;4971824;28;20345;-68
2021/11/18 11:59:50;;;;;;;39.40;6.35;;;;;;;;;;4972781;28;20105;-67
2021/11/18 12:02:18;;;;;;;26.10;5.93;;;;;;;;;;4989432;28;20026;-68
2021/11/18 12:04:43;;;;;;;29.55;7.18;;;;;;;;;;4994141;28;20026;-67
2021/11/18 12:07:20;;;;;;;28.23;5.28;;;;;;;;;;4994552;28;20073;-67
2021/11/18 12:09:56;;;;;;;24.02;5.35;;;;;;;;;;4991580;28;20105;-68
2021/11/18 12:12:36;;;;;;;26.23;6.15;;;;;;;;;;4983315;28;20039;-68
2021/11/18 12:15:08;;;;;;;33.58;5.53;;;;;;;;;;4975181;28;20412;-68
2021/11/18 12:17:40;;;;;;;31.88;6.93;;;;;;;;;;4975232;28;20034;-67
2021/11/18 12:20:07;;;;;;;29.55;6.53;;;;;;;;;;4977833;28;20030;-69
2021/11/18 12:22:38;;;;;;;31.42;5.18;;;;;;;;;;4994581;28;20471;-67
2021/11/18 12:25:23;;;;;;;24.90;5.07;;;;;;;;;;4977518;28;20093;-69
2021/11/18 12:28:00;;;;;;;22.38;4.40;;;;;;;;;;4983364;28;20110;-68
2021/11/18 12:30:32;;;;;;;23.35;5.65;;;;;;;;;;4974472;28;20031;-69
2021/11/18 12:33:05;;;;;;;26.42;5.47;;;;;;;;;;4992014;28;20490;-68
2021/11/18 12:35:42;;;;;;;32.50;7.95;;;;;;;;;;4994190;28;20022;-68
2021/11/18 12:38:26;;;;;;;28.58;4.47;;;;;;;;;;4993398;28;20534;-68
2021/11/18 12:41:07;;;;;;;27.15;4.20;;;;;;;;;;4993953;28;20635;-67
2021/11/18 12:43:36;;;;;;;38.45;6.07;;;;;;;;;;4994040;28;20027;-67
2021/11/18 12:46:15;;;;;;;30.17;5.13;;;;;;;;;;4994163;28;20367;-68
2021/11/18 12:48:53;;;;;;;32.95;5.53;;;;;;;;;;4994090;28;20030;-68
2021/11/18 12:51:41;;;;;;;35.50;5.63;;;;;;;;;;4993716;28;20019;-69
2021/11/18 12:54:09;;;;;;;29.90;5.45;;;;;;;;;;4992832;28;20025;-68
2021/11/18 12:56:56;;;;;;;16.95;4.45;;;;;;;;;;4993722;28;20018;-68
2021/11/18 12:59:36;;;;;;;30.08;5.25;;;;;;;;;;4993911;28;20101;-67
2021/11/18 13:02:03;;;;;;;;;;;;;;;;;;4994033;28;20030;-68
2021/11/18 13:04:32;;;;;;;31.67;4.80;;;;;;;;;;4993992;28;19932;-67
2021/11/18 13:06:58;;;;;;;25.40;4.15;;;;;;;;;;4995816;28;20380;-67
2021/11/18 13:09:43;;;;;;;28.77;5.10;;;;;;;;;;4993118;28;20023;-68
2021/11/18 13:12:24;;;;;;;30.98;5.10;;;;;;;;;;4980060;28;20066;-67
2021/11/18 13:14:49;;;;;;;19.77;4.38;;;;;;;;;;4980884;28;20045;-69
2021/11/18 13:17:20;;;;;;;19.65;5.45;;;;;;;;;;4993161;28;20518;-67
2021/11/18 13:20:05;;;;;;;32.33;4.70;;;;;;;;;;4993441;28;20256;-69
2021/11/18 13:22:45;;;;;;;25.35;4.70;;;;;;;;;;4993446;28;20041;-67
2021/11/18 13:25:13;;;;;;;31.80;5.45;;;;;;;;;;4978276;28;20026;-67
2021/11/18 13:27:38;;;;;;;29.60;4.55;;;;;;;;;;4973185;28;20023;-68
2021/11/18 13:30:05;;;;;;;22.77;5.40;;;;;;;;;;4992797;28;20085;-69
2021/11/18 13:32:31;;;;;;;23.00;4.85;;;;;;;;;;4993126;28;20256;-68
2021/11/18 13:35:01;;;;;;;27.38;5.82;;;;;;;;;;4993327;28;20034;-68
2021/11/18 13:37:31;;;;;;;23.20;4.30;;;;;;;;;;4993216;28;20033;-67
2021/11/18 13:39:58;;;;;;;26.27;4.75;;;;;;;;;;4993037;28;20037;-67
2021/11/18 13:42:26;;;;;;;27.38;5.15;;;;;;;;;;4990475;28;20109;-67
2021/11/18 13:44:54;;;;;;;30.48;4.38;;;;;;;;;;4990181;28;20065;-68
2021/11/18 13:47:19;;;;;;;30.10;4.70;;;;;;;;;;4993181;28;20097;-68
2021/11/18 13:49:46;;;;;;;32.53;6.20;;;;;;;;;;4992555;28;20153;-68
2021/11/18 13:52:16;;;;;;;23.63;4.40;;;;;;;;;;4992828;28;20249;-67
2021/11/18 13:54:50;;;;;;;24.52;4.25;;;;;;;;;;4992802;28;20018;-67
2021/11/18 13:57:28;;;;;;;34.22;5.15;;;;;;;;;;4992715;28;20026;-67
2021/11/18 13:59:56;;;;;;;28.40;6.28;;;;;;;;;;4991094;28;20026;-67
2021/11/18 14:02:21;;;;;;;35.08;4.93;;;;;;;;;;4978131;28;20076;-67
2021/11/18 14:04:53;;;;;;;20.77;4.63;;;;;;;;;;4992809;28;20148;-67
2021/11/18 14:07:19;;;;;;;26.13;3.67;;;;;;;;;;4989677;28;20101;-67
2021/11/18 14:09:46;;;;;;;22.27;3.60;;;;;;;;;;4992244;28;20097;-69
2021/11/18 14:12:30;;;;;;;14.50;3.40;;;;;;;;;;4992271;28;20021;-67
2021/11/18 14:15:14;;;;;;;18.33;3.55;;;;;;;;;;4990546;28;20014;-68
2021/11/18 14:17:49;;;;;;;28.88;5.13;;;;;;;;;;4987398;28;20109;-71
2021/11/18 14:20:30;;;;;;;24.05;3.65;;;;;;;;;;4991251;28;20034;-67
2021/11/18 14:23:09;;;;;;;25.55;3.20;;;;;;;;;;4992624;28;20026;-67
2021/11/18 14:25:36;;;;;;;21.00;4.13;;;;;;;;;;4992135;28;20018;-67
2021/11/18 14:28:25;;;;;;;20.85;3.65;;;;;;;;;;4991391;28;20503;-68
2021/11/18 14:30:50;;;;;;;39.78;4.68;;;;;;;;;;4989947;28;20045;-68